createdAt,value
2023-12-02T00:00:54.062Z,943
2023-12-02T00:01:55.930Z,942.9
2023-12-02T00:02:57.986Z,943
2023-12-02T00:04:00.311Z,942.9
2023-12-02T00:05:02.578Z,943
2023-12-02T00:06:04.816Z,943.1
2023-12-02T00:07:09.449Z,943
2023-12-02T00:08:11.271Z,942.9
2023-12-02T00:09:13.125Z,942.8
2023-12-02T00:10:14.923Z,943
2023-12-02T00:11:16.763Z,943.3
2023-12-02T00:12:18.570Z,943.2
2023-12-02T00:13:20.384Z,943.3
2023-12-02T00:14:22.158Z,942.9
2023-12-02T00:15:24.263Z,942.7
2023-12-02T00:16:26.128Z,943
2023-12-02T00:17:27.962Z,943.3
2023-12-02T00:18:30.386Z,943.3
2023-12-02T00:19:32.809Z,943
2023-12-02T00:20:34.662Z,942.9
2023-12-02T00:21:36.429Z,943.2
2023-12-02T00:22:38.186Z,943.1
2023-12-02T00:23:39.928Z,942.7
2023-12-02T00:24:41.710Z,943.1
2023-12-02T00:25:43.492Z,943.2
2023-12-02T00:26:45.359Z,943.1
2023-12-02T00:27:47.102Z,943
2023-12-02T00:28:48.835Z,942.7
2023-12-02T00:29:50.618Z,942.9
2023-12-02T00:30:52.359Z,943
2023-12-02T00:31:54.071Z,943
2023-12-02T00:32:56.394Z,943
2023-12-02T00:33:58.746Z,943
2023-12-02T00:35:00.985Z,943
2023-12-02T00:36:02.926Z,943
2023-12-02T00:37:04.802Z,942.9
2023-12-02T00:38:06.567Z,942.8
2023-12-02T00:39:08.562Z,943
2023-12-02T00:40:10.510Z,943.2
2023-12-02T00:41:12.517Z,943.3
2023-12-02T00:42:14.769Z,943.2
2023-12-02T00:43:16.676Z,942.8
2023-12-02T00:44:18.361Z,942.9
2023-12-02T00:45:20.261Z,943.2
2023-12-02T00:46:22.050Z,943.4
2023-12-02T00:47:23.854Z,943.3
2023-12-02T00:48:26.560Z,943
2023-12-02T00:49:28.726Z,942.9
2023-12-02T00:50:30.770Z,943
2023-12-02T00:51:32.755Z,943
2023-12-02T00:52:34.691Z,943.2
2023-12-02T00:53:36.434Z,943.3
2023-12-02T00:54:38.517Z,943.2
2023-12-02T00:55:40.518Z,943
2023-12-02T00:56:42.297Z,942.9
2023-12-02T00:57:44.274Z,942.9
2023-12-02T00:58:46.009Z,942.7
2023-12-02T00:59:47.763Z,942.7
2023-12-02T01:00:49.531Z,943
2023-12-02T01:01:51.631Z,943
2023-12-02T01:02:53.738Z,942.9
2023-12-02T01:03:55.904Z,942.8
2023-12-02T01:04:58.004Z,942.8
2023-12-02T01:06:00.215Z,943
2023-12-02T01:07:02.235Z,943.1
2023-12-02T01:08:03.981Z,943.1
2023-12-02T01:09:05.844Z,943
2023-12-02T01:10:07.678Z,943
2023-12-02T01:11:09.457Z,943.3
2023-12-02T01:12:11.290Z,943.2
2023-12-02T01:13:13.170Z,943.2
2023-12-02T01:14:14.935Z,943.2
2023-12-02T01:15:16.958Z,943.3
2023-12-02T01:16:19.034Z,943.2
2023-12-02T01:17:20.757Z,943
2023-12-02T01:18:22.907Z,942.9
2023-12-02T01:19:25.123Z,943
2023-12-02T01:20:27.127Z,942.9
2023-12-02T01:21:29.559Z,942.9
2023-12-02T01:22:32.261Z,942.9
2023-12-02T01:23:34.001Z,943
2023-12-02T01:24:35.829Z,943.1
2023-12-02T01:25:37.680Z,943
2023-12-02T01:26:39.473Z,943.1
2023-12-02T01:27:41.212Z,943.1
2023-12-02T01:28:43.121Z,942.9
2023-12-02T01:29:51.109Z,942.8
2023-12-02T01:30:53.049Z,942.9
2023-12-02T01:31:54.858Z,943.1
2023-12-02T01:32:56.973Z,943.1
2023-12-02T01:33:59.655Z,942.9
2023-12-02T01:35:01.773Z,942.9
2023-12-02T01:36:03.714Z,943
2023-12-02T01:37:05.667Z,943
2023-12-02T01:38:07.402Z,942.9
2023-12-02T01:39:09.182Z,942.8
2023-12-02T01:40:10.977Z,942.7
2023-12-02T01:41:12.710Z,942.8
2023-12-02T01:42:14.590Z,942.9
2023-12-02T01:43:16.424Z,942.9
2023-12-02T01:44:18.256Z,942.8
2023-12-02T01:45:20.375Z,942.9
2023-12-02T01:46:22.130Z,943
2023-12-02T01:47:23.907Z,942.9
2023-12-02T01:48:26.292Z,942.8
2023-12-02T01:49:28.659Z,942.8
2023-12-02T01:50:30.535Z,943
2023-12-02T01:51:32.564Z,942.9
2023-12-02T01:52:34.381Z,942.9
2023-12-02T01:53:36.154Z,942.8
2023-12-02T01:54:38.152Z,942.3
2023-12-02T01:55:39.962Z,942.3
2023-12-02T01:56:42.467Z,942.6
2023-12-02T01:57:44.723Z,942.9
2023-12-02T01:58:46.511Z,942.8
2023-12-02T01:59:48.372Z,942.8
2023-12-02T02:00:50.169Z,942.8
2023-12-02T02:01:52.051Z,942.6
2023-12-02T02:02:54.056Z,942.5
2023-12-02T02:03:56.219Z,942.5
2023-12-02T02:04:58.670Z,942.8
2023-12-02T02:06:03.545Z,942.9
2023-12-02T02:07:05.402Z,942.8
2023-12-02T02:08:07.190Z,942.6
2023-12-02T02:09:08.974Z,942.5
2023-12-02T02:10:10.851Z,942.5
2023-12-02T02:11:12.562Z,942.4
2023-12-02T02:12:14.442Z,942.5
2023-12-02T02:13:16.267Z,942.6
2023-12-02T02:14:17.981Z,942.7
2023-12-02T02:15:19.997Z,942.7
2023-12-02T02:16:21.816Z,942.6
2023-12-02T02:17:23.938Z,942.7
2023-12-02T02:18:34.802Z,942.7
2023-12-02T02:19:36.997Z,942.4
2023-12-02T02:20:38.966Z,942.4
2023-12-02T02:21:40.732Z,942.5
2023-12-02T02:22:42.478Z,942.4
2023-12-02T02:23:44.316Z,942.5
2023-12-02T02:24:46.052Z,942.5
2023-12-02T02:25:47.841Z,942.4
2023-12-02T02:26:49.619Z,942.3
2023-12-02T02:27:51.347Z,942.2
2023-12-02T02:28:53.126Z,942.2
2023-12-02T02:29:55.290Z,942.1
2023-12-02T02:30:57.239Z,942
2023-12-02T02:31:58.973Z,942.2
2023-12-02T02:33:01.178Z,942.2
2023-12-02T02:34:03.256Z,942.2
2023-12-02T02:35:05.014Z,942.4
2023-12-02T02:36:06.838Z,942.5
2023-12-02T02:37:08.675Z,942.4
2023-12-02T02:38:10.428Z,942.4
2023-12-02T02:39:12.652Z,942.3
2023-12-02T02:40:14.569Z,942.4
2023-12-02T02:41:16.357Z,942.4
2023-12-02T02:42:18.495Z,942.5
2023-12-02T02:43:20.393Z,942.3
2023-12-02T02:44:22.193Z,942.2
2023-12-02T02:45:24.517Z,942.2
2023-12-02T02:46:26.564Z,942.3
2023-12-02T02:47:28.580Z,942.1
2023-12-02T02:48:31.037Z,942.1
2023-12-02T02:49:33.247Z,942.1
2023-12-02T02:50:35.210Z,942.2
2023-12-02T02:51:37.094Z,942.2
2023-12-02T02:52:39.016Z,942.2
2023-12-02T02:53:40.742Z,942.1
2023-12-02T02:54:42.446Z,942.1
2023-12-02T02:55:44.207Z,942.1
2023-12-02T02:56:45.954Z,942.2
2023-12-02T02:57:47.673Z,942.2
2023-12-02T02:58:49.381Z,942.3
2023-12-02T02:59:51.145Z,942.3
2023-12-02T03:00:52.941Z,942.4
2023-12-02T03:01:55.014Z,942.4
2023-12-02T03:02:56.960Z,942.3
2023-12-02T03:03:59.026Z,942.3
2023-12-02T03:05:01.018Z,942.3
2023-12-02T03:06:02.932Z,942.3
2023-12-02T03:07:04.886Z,942.2
2023-12-02T03:08:06.643Z,942.2
2023-12-02T03:09:08.691Z,942.3
2023-12-02T03:10:10.553Z,942.3
2023-12-02T03:11:12.391Z,942.2
2023-12-02T03:12:14.477Z,942.1
2023-12-02T03:13:16.296Z,942
2023-12-02T03:14:18.319Z,942
2023-12-02T03:15:20.308Z,942.1
2023-12-02T03:16:22.230Z,942.1
2023-12-02T03:17:24.158Z,942.1
2023-12-02T03:18:26.379Z,942.1
2023-12-02T03:19:28.873Z,942.1
2023-12-02T03:20:30.901Z,942.1
2023-12-02T03:21:33.421Z,942.2
2023-12-02T03:22:35.464Z,942.2
2023-12-02T03:23:37.286Z,942.2
2023-12-02T03:24:39.299Z,942.1
2023-12-02T03:25:41.129Z,942.1
2023-12-02T03:26:43.047Z,942.2
2023-12-02T03:27:47.552Z,942.3
2023-12-02T03:28:49.335Z,942.4
2023-12-02T03:29:51.054Z,942.4
2023-12-02T03:30:52.764Z,942.4
2023-12-02T03:31:54.555Z,942.4
2023-12-02T03:32:56.880Z,942.3
2023-12-02T03:33:59.324Z,942.3
2023-12-02T03:35:01.299Z,942.2
2023-12-02T03:36:03.178Z,942.2
2023-12-02T03:37:04.969Z,942.2
2023-12-02T03:38:06.704Z,942.2
2023-12-02T03:39:08.531Z,942
2023-12-02T03:40:10.292Z,941.9
2023-12-02T03:41:12.073Z,941.8
2023-12-02T03:42:14.112Z,942
2023-12-02T03:43:15.973Z,941.9
2023-12-02T03:44:17.660Z,941.9
2023-12-02T03:45:19.770Z,941.8
2023-12-02T03:46:21.857Z,941.8
2023-12-02T03:47:23.601Z,941.9
2023-12-02T03:48:26.074Z,942.1
2023-12-02T03:49:28.638Z,942.2
2023-12-02T03:50:30.739Z,942.2
2023-12-02T03:51:32.844Z,942.1
2023-12-02T03:52:34.918Z,942.1
2023-12-02T03:53:36.724Z,942.2
2023-12-02T03:54:38.787Z,942.2
2023-12-02T03:55:40.662Z,942.3
2023-12-02T03:56:42.588Z,942.4
2023-12-02T03:57:44.442Z,942.4
2023-12-02T03:58:46.157Z,942.2
2023-12-02T03:59:47.890Z,942.1
2023-12-02T04:00:49.631Z,942.1
2023-12-02T04:01:51.588Z,942.2
2023-12-02T04:02:53.553Z,942.2
2023-12-02T04:03:55.487Z,942.3
2023-12-02T04:04:57.414Z,942.4
2023-12-02T04:05:59.430Z,942.2
2023-12-02T04:07:01.648Z,942
2023-12-02T04:08:04.069Z,942.2
2023-12-02T04:09:06.270Z,942.2
2023-12-02T04:10:08.151Z,942.2
2023-12-02T04:11:09.896Z,942.1
2023-12-02T04:12:11.968Z,942.1
2023-12-02T04:13:13.835Z,942.1
2023-12-02T04:14:15.574Z,942
2023-12-02T04:15:17.532Z,941.8
2023-12-02T04:16:19.380Z,941.8
2023-12-02T04:17:21.055Z,942
2023-12-02T04:18:23.431Z,942.1
2023-12-02T04:19:25.993Z,941.9
2023-12-02T04:20:27.975Z,941.9
2023-12-02T04:21:30.074Z,941.9
2023-12-02T04:22:32.082Z,941.9
2023-12-02T04:23:33.844Z,941.9
2023-12-02T04:24:35.871Z,941.7
2023-12-02T04:25:37.918Z,941.7
2023-12-02T04:26:39.635Z,941.7
2023-12-02T04:27:41.503Z,941.6
2023-12-02T04:28:43.304Z,941.6
2023-12-02T04:29:45.080Z,941.7
2023-12-02T04:30:46.824Z,941.7
2023-12-02T04:31:48.575Z,941.8
2023-12-02T04:32:50.760Z,941.6
2023-12-02T04:33:53.234Z,941.6
2023-12-02T04:34:55.488Z,941.6
2023-12-02T04:35:57.420Z,941.7
2023-12-02T04:36:59.292Z,941.7
2023-12-02T04:38:01.064Z,941.7
2023-12-02T04:39:02.848Z,941.7
2023-12-02T04:40:04.701Z,941.6
2023-12-02T04:41:06.408Z,941.3
2023-12-02T04:42:08.268Z,941.2
2023-12-02T04:43:10.214Z,941.4
2023-12-02T04:44:11.981Z,941.5
2023-12-02T04:45:13.895Z,941.5
2023-12-02T04:46:15.729Z,941.5
2023-12-02T04:47:17.466Z,941.1
2023-12-02T04:48:19.728Z,941.2
2023-12-02T04:49:21.816Z,941.1
2023-12-02T04:50:24.319Z,941.1
2023-12-02T04:51:26.127Z,941
2023-12-02T04:52:28.139Z,940.8
2023-12-02T04:53:30.149Z,940.9
2023-12-02T04:54:32.286Z,941
2023-12-02T04:55:34.072Z,941
2023-12-02T04:56:35.799Z,941.5
2023-12-02T04:57:37.886Z,941.9
2023-12-02T04:58:39.860Z,941.6
2023-12-02T04:59:41.592Z,941.3
2023-12-02T05:00:43.618Z,940.9
2023-12-02T05:01:45.738Z,940.9
2023-12-02T05:02:47.930Z,940.9
2023-12-02T05:03:50.321Z,941.3
2023-12-02T05:04:52.411Z,941.7
2023-12-02T05:05:54.497Z,941.7
2023-12-02T05:06:56.749Z,941.7
2023-12-02T05:07:58.660Z,941.6
2023-12-02T05:09:00.660Z,941.3
2023-12-02T05:10:02.469Z,941.2
2023-12-02T05:11:04.249Z,941.3
2023-12-02T05:12:06.122Z,941.5
2023-12-02T05:13:07.929Z,941.6
2023-12-02T05:14:09.721Z,941.4
2023-12-02T05:15:11.797Z,941.2
2023-12-02T05:16:13.807Z,941.2
2023-12-02T05:17:15.522Z,941.4
2023-12-02T05:18:17.651Z,941.6
2023-12-02T05:19:20.149Z,941.8
2023-12-02T05:20:22.218Z,941.9
2023-12-02T05:21:24.331Z,941.7
2023-12-02T05:22:26.226Z,941.5
2023-12-02T05:23:27.983Z,941.4
2023-12-02T05:24:30.088Z,941.6
2023-12-02T05:25:31.967Z,941.6
2023-12-02T05:26:33.698Z,941.7
2023-12-02T05:27:35.746Z,941.8
2023-12-02T05:28:37.545Z,941.8
2023-12-02T05:29:39.372Z,941.8
2023-12-02T05:30:41.330Z,941.4
2023-12-02T05:31:43.317Z,941
2023-12-02T05:32:45.309Z,940.8
2023-12-02T05:33:47.329Z,941.1
2023-12-02T05:34:49.246Z,941.4
2023-12-02T05:35:51.163Z,941.6
2023-12-02T05:36:53.072Z,941.6
2023-12-02T05:37:55.029Z,941.5
2023-12-02T05:38:56.999Z,941.4
2023-12-02T05:39:58.840Z,941.4
2023-12-02T05:41:00.590Z,941.5
2023-12-02T05:42:02.479Z,941.6
2023-12-02T05:43:04.433Z,941.7
2023-12-02T05:44:06.328Z,941.6
2023-12-02T05:45:08.404Z,941.7
2023-12-02T05:46:10.485Z,941.8
2023-12-02T05:47:12.240Z,941.8
2023-12-02T05:48:14.530Z,941.6
2023-12-02T05:49:16.845Z,941.3
2023-12-02T05:50:21.525Z,941.3
2023-12-02T05:51:23.615Z,941.5
2023-12-02T05:52:25.627Z,941.4
2023-12-02T05:53:27.403Z,941.2
2023-12-02T05:54:29.370Z,941
2023-12-02T05:55:31.927Z,941
2023-12-02T05:56:33.688Z,941.1
2023-12-02T05:57:35.710Z,941.2
2023-12-02T05:58:37.447Z,941.2
2023-12-02T05:59:39.154Z,941.2
2023-12-02T06:00:41.168Z,941
2023-12-02T06:01:43.248Z,940.9
2023-12-02T06:02:45.191Z,940.9
2023-12-02T06:03:47.309Z,940.9
2023-12-02T06:04:49.505Z,941.1
2023-12-02T06:05:51.246Z,941.3
2023-12-02T06:06:52.968Z,941.3
2023-12-02T06:07:54.880Z,941.3
2023-12-02T06:08:56.747Z,941.3
2023-12-02T06:09:58.877Z,941.3
2023-12-02T06:11:00.670Z,941.4
2023-12-02T06:12:02.664Z,941.4
2023-12-02T06:13:04.464Z,941.3
2023-12-02T06:14:06.408Z,941.1
2023-12-02T06:15:08.620Z,941.2
2023-12-02T06:16:10.445Z,941.4
2023-12-02T06:17:12.187Z,941.6
2023-12-02T06:18:14.514Z,941.6
2023-12-02T06:19:16.905Z,941.5
2023-12-02T06:20:19.024Z,941.7
2023-12-02T06:21:23.462Z,941.9
2023-12-02T06:22:25.389Z,942.1
2023-12-02T06:23:27.301Z,942
2023-12-02T06:24:29.600Z,941.7
2023-12-02T06:25:31.636Z,941.5
2023-12-02T06:26:33.463Z,941.5
2023-12-02T06:27:35.638Z,941.7
2023-12-02T06:28:37.617Z,941.7
2023-12-02T06:29:39.447Z,941.5
2023-12-02T06:30:41.386Z,941.3
2023-12-02T06:31:43.217Z,941.5
2023-12-02T06:32:45.171Z,941.7
2023-12-02T06:33:47.056Z,941.7
2023-12-02T06:34:49.302Z,941.7
2023-12-02T06:35:51.245Z,941.7
2023-12-02T06:36:53.061Z,941.7
2023-12-02T06:37:54.757Z,941.7
2023-12-02T06:39:01.415Z,941.7
2023-12-02T06:40:03.485Z,941.7
2023-12-02T06:41:05.236Z,941.7
2023-12-02T06:42:07.120Z,941.7
2023-12-02T06:43:10.164Z,941.7
2023-12-02T06:44:11.916Z,941.7
2023-12-02T06:45:13.854Z,941.7
2023-12-02T06:46:15.724Z,941.8
2023-12-02T06:47:17.499Z,941.9
2023-12-02T06:48:19.627Z,941.9
2023-12-02T06:49:22.004Z,941.6
2023-12-02T06:50:24.087Z,941.4
2023-12-02T06:51:26.042Z,941.6
2023-12-02T06:52:27.895Z,941.7
2023-12-02T06:53:29.701Z,941.4
2023-12-02T06:54:32.205Z,941.3
2023-12-02T06:55:34.003Z,941.6
2023-12-02T06:56:35.753Z,941.7
2023-12-02T06:57:37.993Z,941.8
2023-12-02T06:58:39.928Z,941.8
2023-12-02T06:59:41.703Z,941.7
2023-12-02T07:00:43.690Z,941.7
2023-12-02T07:01:45.588Z,941.5
2023-12-02T07:02:47.414Z,941.5
2023-12-02T07:03:49.360Z,941.7
2023-12-02T07:04:51.204Z,941.7
2023-12-02T07:05:53.353Z,941.9
2023-12-02T07:06:55.365Z,942
2023-12-02T07:07:57.347Z,942.1
2023-12-02T07:08:59.219Z,942.1
2023-12-02T07:10:01.238Z,941.8
2023-12-02T07:11:02.970Z,941.6
2023-12-02T07:12:04.911Z,941.6
2023-12-02T07:13:06.721Z,941.7
2023-12-02T07:14:08.410Z,941.8
2023-12-02T07:15:10.770Z,941.8
2023-12-02T07:16:12.710Z,941.9
2023-12-02T07:17:14.530Z,941.8
2023-12-02T07:18:16.585Z,941.9
2023-12-02T07:19:19.300Z,942
2023-12-02T07:20:21.280Z,941.8
2023-12-02T07:21:23.393Z,941.8
2023-12-02T07:22:25.363Z,941.7
2023-12-02T07:23:27.187Z,941.7
2023-12-02T07:24:29.085Z,941.9
2023-12-02T07:25:30.913Z,942.1
2023-12-02T07:26:32.673Z,942.2
2023-12-02T07:27:34.568Z,942.1
2023-12-02T07:28:36.474Z,941.9
2023-12-02T07:30:52.231Z,942.1
2023-12-02T07:31:54.277Z,942
2023-12-02T07:32:56.079Z,941.8
2023-12-02T07:33:58.002Z,941.8
2023-12-02T07:35:00.175Z,941.9
2023-12-02T07:36:02.280Z,941.8
2023-12-02T07:37:04.085Z,941.7
2023-12-02T07:38:06.012Z,941.8
2023-12-02T07:40:14.634Z,941.9
2023-12-02T07:41:16.465Z,942
2023-12-02T07:42:18.209Z,941.9
2023-12-02T07:43:20.069Z,941.8
2023-12-02T07:44:21.822Z,941.9
2023-12-02T07:45:23.600Z,941.8
2023-12-02T07:46:27.332Z,941.8
2023-12-02T07:47:32.721Z,941.8
2023-12-02T07:48:35.076Z,941.8
2023-12-02T07:49:37.197Z,941.6
2023-12-02T07:50:38.955Z,941.3
2023-12-02T07:51:40.628Z,941.5
2023-12-02T07:52:42.481Z,941.8
2023-12-02T07:53:44.461Z,941.7
2023-12-02T07:54:46.327Z,941.5
2023-12-02T07:55:48.146Z,941.5
2023-12-02T07:56:50.168Z,941.6
2023-12-02T07:57:51.931Z,941.6
2023-12-02T07:58:53.808Z,941.6
2023-12-02T07:59:55.664Z,941.5
2023-12-02T08:00:57.576Z,941.4
2023-12-02T08:01:59.742Z,941.3
2023-12-02T08:03:01.858Z,941.4
2023-12-02T08:04:03.946Z,941.4
2023-12-02T08:06:19.661Z,941.2
2023-12-02T08:07:21.386Z,941.3
2023-12-02T08:08:23.137Z,941.4
2023-12-02T08:09:24.928Z,941.5
2023-12-02T08:10:27.393Z,941.4
2023-12-02T08:11:29.537Z,941.4
2023-12-02T08:12:31.335Z,941.4
2023-12-02T08:13:33.161Z,941.4
2023-12-02T08:14:35.010Z,941.6
2023-12-02T08:15:36.785Z,941.8
2023-12-02T08:16:38.676Z,941.6
2023-12-02T08:17:40.734Z,941.5
2023-12-02T08:18:42.669Z,941.5
2023-12-02T08:19:44.936Z,941.8
2023-12-02T08:20:47.158Z,941.8
2023-12-02T08:21:49.142Z,941.6
2023-12-02T08:22:51.049Z,941.4
2023-12-02T08:23:52.873Z,941.4
2023-12-02T08:24:54.623Z,941.4
2023-12-02T08:25:56.563Z,941.5
2023-12-02T08:26:58.364Z,941.6
2023-12-02T08:28:00.385Z,941.6
2023-12-02T08:29:02.563Z,941.5
2023-12-02T08:30:05.151Z,941.3
2023-12-02T08:31:06.930Z,941.3
2023-12-02T08:32:08.757Z,941.3
2023-12-02T08:33:10.659Z,941.2
2023-12-02T08:34:16.713Z,941.3
2023-12-02T08:35:19.018Z,941.4
2023-12-02T08:36:20.937Z,941.5
2023-12-02T08:37:22.772Z,941.6
2023-12-02T08:38:24.496Z,941.5
2023-12-02T08:39:26.308Z,941.4
2023-12-02T08:40:28.256Z,941.1
2023-12-02T08:41:30.204Z,941
2023-12-02T08:42:32.245Z,941.1
2023-12-02T08:43:34.204Z,941.2
2023-12-02T08:44:36.014Z,941.1
2023-12-02T08:45:37.773Z,941.3
2023-12-02T08:46:39.650Z,941.3
2023-12-02T08:47:41.582Z,941.2
2023-12-02T08:48:43.582Z,941.1
2023-12-02T08:49:45.535Z,941.2
2023-12-02T08:50:47.430Z,941.2
2023-12-02T08:51:49.199Z,941.2
2023-12-02T08:52:51.274Z,941.2
2023-12-02T08:53:53.145Z,941.3
2023-12-02T08:54:54.874Z,941.3
2023-12-02T08:55:56.753Z,941.3
2023-12-02T08:56:58.786Z,941.3
2023-12-02T08:58:00.504Z,941.2
2023-12-02T08:59:02.597Z,941.2
2023-12-02T09:00:04.389Z,941.2
2023-12-02T09:01:06.160Z,941.3
2023-12-02T09:02:08.246Z,941.3
2023-12-02T09:03:10.306Z,941.2
2023-12-02T09:04:12.415Z,941.2
2023-12-02T09:05:14.218Z,941.4
2023-12-02T09:06:15.938Z,941.4
2023-12-02T09:07:17.700Z,941.4
2023-12-02T09:08:19.957Z,941.3
2023-12-02T09:09:21.930Z,941.3
2023-12-02T09:10:23.734Z,941.2
2023-12-02T09:11:25.675Z,941.2
2023-12-02T09:12:27.743Z,941.3
2023-12-02T09:13:29.638Z,941.3
2023-12-02T09:14:31.567Z,941.2
2023-12-02T09:15:33.327Z,941
2023-12-02T09:16:35.420Z,940.9
2023-12-02T09:17:37.361Z,941
2023-12-02T09:18:39.588Z,941
2023-12-02T09:19:41.923Z,941.2
2023-12-02T09:20:43.726Z,941.2
2023-12-02T09:21:46.298Z,941.3
2023-12-02T09:22:48.923Z,941.4
2023-12-02T09:23:50.927Z,941.4
2023-12-02T09:24:52.926Z,941.5
2023-12-02T09:25:55.361Z,941.3
2023-12-02T09:26:57.179Z,941.3
2023-12-02T09:27:59.026Z,941.2
2023-12-02T09:29:01.128Z,941
2023-12-02T09:30:03.222Z,941
2023-12-02T09:31:11.466Z,941
2023-12-02T09:32:13.337Z,940.9
2023-12-02T09:33:15.595Z,941
2023-12-02T09:34:17.565Z,941
2023-12-02T09:35:19.330Z,941.1
2023-12-02T09:36:21.078Z,941
2023-12-02T09:37:22.780Z,941.1
2023-12-02T09:38:24.633Z,940.9
2023-12-02T09:39:26.336Z,941
2023-12-02T09:40:28.250Z,941
2023-12-02T09:41:30.103Z,941
2023-12-02T09:42:31.794Z,941
2023-12-02T09:43:33.786Z,941.1
2023-12-02T09:44:35.679Z,941.1
2023-12-02T09:45:37.517Z,941
2023-12-02T09:46:39.448Z,941
2023-12-02T09:47:41.363Z,941
2023-12-02T09:48:43.672Z,941
2023-12-02T09:49:45.591Z,941
2023-12-02T09:50:47.417Z,941
2023-12-02T09:51:49.129Z,941
2023-12-02T09:52:51.101Z,941.1
2023-12-02T09:53:53.067Z,941.1
2023-12-02T09:54:54.831Z,941.1
2023-12-02T09:55:56.667Z,941
2023-12-02T09:56:58.504Z,941
2023-12-02T09:58:00.243Z,941
2023-12-02T09:59:02.552Z,940.9
2023-12-02T10:00:04.404Z,940.9
2023-12-02T10:01:06.317Z,940.9
2023-12-02T10:02:08.602Z,940.9
2023-12-02T10:03:10.572Z,940.9
2023-12-02T10:04:12.435Z,940.9
2023-12-02T10:05:15.052Z,940.9
2023-12-02T10:06:17.598Z,940.9
2023-12-02T10:07:19.494Z,940.9
2023-12-02T10:08:23.810Z,940.8
2023-12-02T10:09:25.624Z,940.8
2023-12-02T10:10:28.193Z,940.7
2023-12-02T10:11:30.156Z,940.7
2023-12-02T10:12:32.128Z,940.6
2023-12-02T10:13:34.162Z,940.6
2023-12-02T10:14:36.225Z,940.6
2023-12-02T10:15:37.967Z,940.7
2023-12-02T10:16:40.119Z,940.7
2023-12-02T10:17:42.076Z,940.8
2023-12-02T10:18:44.274Z,940.7
2023-12-02T10:19:46.147Z,940.6
2023-12-02T10:20:47.951Z,940.7
2023-12-02T10:21:49.669Z,940.6
2023-12-02T10:22:51.582Z,940.5
2023-12-02T10:23:53.451Z,940.4
2023-12-02T10:24:55.268Z,940.5
2023-12-02T10:25:57.160Z,940.4
2023-12-02T10:26:59.224Z,940.4
2023-12-02T10:28:01.030Z,940.4
2023-12-02T10:29:03.016Z,940.4
2023-12-02T10:30:04.985Z,940.3
2023-12-02T10:31:06.739Z,940.4
2023-12-02T10:32:08.657Z,940.4
2023-12-02T10:33:10.629Z,940.4
2023-12-02T10:34:12.458Z,940.4
2023-12-02T10:35:14.587Z,940.4
2023-12-02T10:36:16.552Z,940.4
2023-12-02T10:37:18.301Z,940.4
2023-12-02T10:38:20.081Z,940.3
2023-12-02T10:39:21.836Z,940.1
2023-12-02T10:40:23.586Z,940.1
2023-12-02T10:41:25.365Z,940
2023-12-02T10:42:27.147Z,940
2023-12-02T10:43:29.275Z,940.1
2023-12-02T10:44:31.294Z,940
2023-12-02T10:45:33.115Z,940
2023-12-02T10:46:35.030Z,940
2023-12-02T10:47:37.289Z,940
2023-12-02T10:48:39.372Z,940
2023-12-02T10:49:41.668Z,940.1
2023-12-02T10:50:43.831Z,940
2023-12-02T10:51:45.627Z,940.1
2023-12-02T10:52:47.349Z,940
2023-12-02T10:53:49.067Z,940
2023-12-02T10:54:50.859Z,940
2023-12-02T10:55:52.641Z,940
2023-12-02T10:56:54.525Z,940
2023-12-02T10:57:56.423Z,940.1
2023-12-02T10:58:58.278Z,940.2
2023-12-02T11:00:00.363Z,940.1
2023-12-02T11:01:02.718Z,940
2023-12-02T11:02:04.672Z,939.9
2023-12-02T11:03:06.918Z,939.9
2023-12-02T11:04:11.700Z,939.8
2023-12-02T11:05:13.722Z,939.7
2023-12-02T11:06:15.589Z,939.8
2023-12-02T11:07:17.472Z,939.7
2023-12-02T11:08:19.376Z,939.6
2023-12-02T11:09:21.148Z,939.6
2023-12-02T11:10:23.019Z,939.6
2023-12-02T11:11:24.822Z,939.7
2023-12-02T11:12:26.740Z,939.7
2023-12-02T11:13:28.537Z,939.8
2023-12-02T11:14:30.271Z,939.7
2023-12-02T11:15:32.259Z,939.7
2023-12-02T11:16:34.205Z,939.8
2023-12-02T11:17:35.998Z,939.7
2023-12-02T11:18:38.160Z,939.7
2023-12-02T11:19:40.333Z,939.7
2023-12-02T11:20:42.329Z,939.8
2023-12-02T11:21:46.665Z,939.7
2023-12-02T11:22:48.449Z,939.6
2023-12-02T11:23:50.182Z,939.6
2023-12-02T11:24:51.895Z,939.5
2023-12-02T11:25:53.666Z,939.5
2023-12-02T11:26:55.807Z,939.6
2023-12-02T11:27:57.584Z,939.6
2023-12-02T11:28:59.380Z,939.7
2023-12-02T11:30:01.436Z,939.5
2023-12-02T11:31:03.402Z,939.5
2023-12-02T11:32:05.153Z,939.5
2023-12-02T11:33:07.231Z,939.6
2023-12-02T11:34:09.808Z,939.7
2023-12-02T11:35:11.913Z,939.7
2023-12-02T11:36:14.136Z,939.6
2023-12-02T11:37:15.947Z,939.6
2023-12-02T11:38:17.678Z,939.5
2023-12-02T11:39:19.576Z,939.6
2023-12-02T11:40:21.425Z,939.6
2023-12-02T11:41:23.166Z,939.6
2023-12-02T11:42:25.175Z,939.6
2023-12-02T11:43:27.237Z,939.5
2023-12-02T11:44:29.155Z,939.4
2023-12-02T11:45:31.066Z,939.4
2023-12-02T11:46:32.836Z,939.3
2023-12-02T11:47:35.230Z,939.3
2023-12-02T11:48:37.811Z,939.2
2023-12-02T11:49:40.236Z,939.1
2023-12-02T11:50:44.989Z,939
2023-12-02T11:51:46.752Z,939
2023-12-02T11:52:48.594Z,939
2023-12-02T11:53:50.381Z,939
2023-12-02T11:54:52.176Z,939
2023-12-02T11:55:54.393Z,939
2023-12-02T11:56:56.345Z,939
2023-12-02T11:57:58.092Z,938.9
2023-12-02T11:58:59.903Z,938.8
2023-12-02T12:00:02.302Z,938.9
2023-12-02T12:01:04.373Z,939
2023-12-02T12:02:06.433Z,939
2023-12-02T12:03:11.616Z,939.2
2023-12-02T12:04:13.491Z,939.2
2023-12-02T12:05:15.530Z,939.1
2023-12-02T12:06:17.675Z,939
2023-12-02T12:07:19.861Z,939.1
2023-12-02T12:08:24.713Z,939.2
2023-12-02T12:09:26.572Z,939.1
2023-12-02T12:10:28.427Z,939.3
2023-12-02T12:11:30.204Z,939.3
2023-12-02T12:12:32.166Z,939.2
2023-12-02T12:13:34.047Z,939.2
2023-12-02T12:14:35.804Z,939.2
2023-12-02T12:15:37.745Z,939.1
2023-12-02T12:16:44.036Z,939.1
2023-12-02T12:17:45.975Z,939
2023-12-02T12:18:48.344Z,939
2023-12-02T12:19:50.476Z,939
2023-12-02T12:20:52.515Z,938.9
2023-12-02T12:21:54.305Z,938.9
2023-12-02T12:22:56.076Z,939
2023-12-02T12:23:58.068Z,939
2023-12-02T12:24:59.845Z,939.1
2023-12-02T12:26:01.591Z,939.1
2023-12-02T12:27:03.612Z,939.1
2023-12-02T12:28:05.645Z,939.3
2023-12-02T12:29:07.479Z,939.3
2023-12-02T12:30:09.458Z,939.3
2023-12-02T12:31:14.403Z,939.4
2023-12-02T12:32:16.191Z,939.5
2023-12-02T12:33:18.351Z,939.4
2023-12-02T12:34:20.989Z,939.3
2023-12-02T12:35:25.989Z,939.4
2023-12-02T12:36:28.078Z,939.3
2023-12-02T12:37:30.068Z,939.2
2023-12-02T12:38:31.802Z,939.3
2023-12-02T12:39:33.617Z,939.3
2023-12-02T12:40:35.553Z,939.4
2023-12-02T12:41:37.288Z,939.4
2023-12-02T12:42:39.100Z,939.5
2023-12-02T12:43:41.264Z,939.5
2023-12-02T12:44:43.020Z,939.5
2023-12-02T12:45:45.249Z,939.5
2023-12-02T12:46:47.300Z,939.5
2023-12-02T12:47:49.368Z,939.6
2023-12-02T12:48:51.464Z,939.5
2023-12-02T12:49:53.333Z,939.6
2023-12-02T12:50:55.161Z,939.6
2023-12-02T12:51:57.078Z,939.7
2023-12-02T12:52:58.811Z,939.7
2023-12-02T12:54:00.894Z,939.8
2023-12-02T12:55:03.096Z,939.8
2023-12-02T12:56:04.901Z,939.9
2023-12-02T12:57:06.714Z,940
2023-12-02T12:58:08.546Z,940
2023-12-02T12:59:10.289Z,940
2023-12-02T13:00:12.307Z,940
2023-12-02T13:01:18.844Z,940
2023-12-02T13:02:20.628Z,940.1
2023-12-02T13:03:23.304Z,940.1
2023-12-02T13:04:25.341Z,940.1
2023-12-02T13:05:27.360Z,940.1
2023-12-02T13:06:29.813Z,940.2
2023-12-02T13:07:32.045Z,940.2
2023-12-02T13:08:33.873Z,940.1
2023-12-02T13:09:36.014Z,940.1
2023-12-02T13:10:38.005Z,940.1
2023-12-02T13:11:39.741Z,940.1
2023-12-02T13:12:41.652Z,940
2023-12-02T13:13:43.685Z,940.1
2023-12-02T13:14:45.653Z,940.2
2023-12-02T13:15:47.415Z,940.2
2023-12-02T13:16:49.143Z,940.1
2023-12-02T13:17:51.010Z,940.1
2023-12-02T13:18:56.338Z,940.2
2023-12-02T13:19:58.663Z,940.2
2023-12-02T13:21:00.714Z,940.2
2023-12-02T13:22:03.176Z,940.2
2023-12-02T13:23:05.538Z,940.2
2023-12-02T13:24:07.373Z,940.2
2023-12-02T13:25:09.268Z,940.2
2023-12-02T13:26:13.964Z,940.2
2023-12-02T13:27:15.762Z,940
2023-12-02T13:28:17.546Z,940
2023-12-02T13:29:19.289Z,940
2023-12-02T13:30:21.239Z,939.9
2023-12-02T13:31:23.046Z,940